CheckWX is a tool to help pilots better visualize weather data.  It is not intended as a substitute for an official pre-flight weather briefing.

08:13:39 UTC

KFWC METAR
Fairfield Municipal Airport
Fairfield, Illinois, USA
Current

19 mins ago

KFWC 220755Z AUTO 01004KT 10SM CLR 02/00 A3029 RMK AO1 T00220000
Observed
Feb-22 @ 07:55 UTC
Wind
  • 010° at 4 KTS
Visibility
10 SM
Flight Rules
VFR
Cloud Levels
  • Clear skies
Temperature
C / 36°F
Dewpoint
C / 32°F
Humidity
87%
Altimeter
30.29" Hg
Pressure
1025.72 hPa
Previous

39 mins ago

KFWC 220735Z AUTO 00000KT 10SM CLR 02/00 A3029 RMK AO1 T00220000
Observed
Feb-22 @ 07:35 UTC
Visibility
10 SM
Flight Rules
VFR
Cloud Levels
  • Clear skies
Temperature
C / 36°F
Dewpoint
C / 32°F
Humidity
87%
Altimeter
30.29" Hg
Pressure
1025.72 hPa
Previous

59 mins ago

KFWC 220715Z AUTO 01003KT 10SM CLR 02/00 A3029 RMK AO1 T00240000
Observed
Feb-22 @ 07:15 UTC
Wind
  • 010° at 3 KTS
Visibility
10 SM
Flight Rules
VFR
Cloud Levels
  • Clear skies
Temperature
C / 36°F
Dewpoint
C / 32°F
Humidity
87%
Altimeter
30.29" Hg
Pressure
1025.72 hPa